Time;durP1;ratioP1;P1;durP2;ratioP2;P2;SDS_P1;SDS_P2;PMS_P1;PMS_P2;Temp;Humidity;BMP_temperature;BMP_pressure;BME280_temperature;BME280_humidity;BME280_pressure;Samples;Min_cycle;Max_cycle;Signal;HPM_P1;HPM_P2
2022/12/05 00:00:29;;;;;;;;;;;18.30;63.70;;;;;;4415500;32;19967;-81
2022/12/05 00:02:54;;;;;;;;;;;18.20;63.60;;;;;;4415228;32;20453;-81
2022/12/05 00:05:20;;;;;;;;;;;18.20;63.60;;;;;;4414401;32;20294;-82
2022/12/05 00:07:46;;;;;;;;;;;18.20;63.60;;;;;;4401568;32;20419;-81
2022/12/05 00:10:12;;;;;;;;;;;18.20;63.60;;;;;;4415562;32;20400;-81
2022/12/05 00:12:38;;;;;;;;;;;18.20;63.60;;;;;;4415204;32;20173;-81
2022/12/05 00:15:03;;;;;;;;;;;18.20;63.60;;;;;;4415626;32;20380;-81
2022/12/05 00:17:30;;;;;;;;;;;18.20;63.70;;;;;;4415244;32;20098;-81
2022/12/05 00:19:56;;;;;;;;;;;18.20;63.60;;;;;;4415459;32;20109;-81
2022/12/05 00:22:21;;;;;;;;;;;18.20;63.70;;;;;;4401483;32;20093;-81
2022/12/05 00:24:47;;;;;;;;;;;18.10;63.60;;;;;;4401343;32;19999;-81
2022/12/05 00:27:13;;;;;;;;;;;18.10;63.60;;;;;;4415155;32;20317;-81
2022/12/05 00:29:38;;;;;;;;;;;18.10;63.60;;;;;;4414946;32;19983;-81
2022/12/05 00:32:04;;;;;;;;;;;18.10;63.60;;;;;;4414730;32;19967;-81
2022/12/05 00:34:30;;;;;;;;;;;18.10;63.70;;;;;;4415119;32;20022;-81
2022/12/05 00:36:56;;;;;;;;;;;18.10;63.60;;;;;;4401257;32;19964;-82
2022/12/05 00:39:21;;;;;;;;;;;18.10;63.70;;;;;;4401364;32;19959;-81
2022/12/05 00:41:47;;;;;;;;;;;18.10;63.70;;;;;;4414936;32;19968;-81
2022/12/05 00:44:13;;;;;;;;;;;18.00;63.70;;;;;;4414884;32;20298;-81
2022/12/05 00:46:38;;;;;;;;;;;18.00;63.60;;;;;;4414984;32;20057;-81
2022/12/05 00:49:06;;;;;;;;;;;18.00;63.70;;;;;;4414710;32;19985;-81
2022/12/05 00:51:36;;;;;;;;;;;18.00;63.70;;;;;;4414781;32;20062;-81
2022/12/05 00:54:03;;;;;;;;;;;18.00;63.70;;;;;;4414654;32;19990;-81
2022/12/05 00:56:30;;;;;;;;;;;18.00;63.70;;;;;;4415011;32;20512;-81
2022/12/05 00:58:56;;;;;;;;;;;18.00;63.70;;;;;;4400816;32;20057;-81
2022/12/05 01:01:23;;;;;;;;;;;18.00;63.70;;;;;;4414621;32;20062;-81
2022/12/05 01:03:50;;;;;;;;;;;18.00;63.70;;;;;;4413523;32;20424;-81
2022/12/05 01:06:16;;;;;;;;;;;18.00;63.70;;;;;;4414663;32;19979;-81
2022/12/05 01:08:42;;;;;;;;;;;18.00;63.80;;;;;;4400996;32;20410;-81
2022/12/05 01:11:08;;;;;;;;;;;17.90;63.70;;;;;;4413411;32;20209;-81
2022/12/05 01:13:34;;;;;;;;;;;17.90;63.70;;;;;;4414457;32;19972;-80
2022/12/05 01:16:00;;;;;;;;;;;17.90;63.60;;;;;;4404066;32;19982;-81
2022/12/05 01:18:26;;;;;;;;;;;17.90;63.60;;;;;;4400830;32;19975;-81
2022/12/05 01:20:52;;;;;;;;;;;17.90;63.70;;;;;;4414651;32;19975;-81
2022/12/05 01:23:18;;;;;;;;;;;17.90;63.70;;;;;;4414349;32;20038;-81
2022/12/05 01:25:46;;;;;;;;;;;17.90;63.70;;;;;;4414693;32;19975;-81
2022/12/05 01:28:12;;;;;;;;;;;17.90;63.70;;;;;;4414398;32;19979;-81
2022/12/05 01:30:38;;;;;;;;;;;17.80;63.70;;;;;;4414693;32;20089;-81
2022/12/05 01:33:04;;;;;;;;;;;17.80;63.70;;;;;;4400279;32;20408;-81
2022/12/05 01:35:31;;;;;;;;;;;17.90;63.70;;;;;;4414299;32;20049;-81
2022/12/05 01:37:57;;;;;;;;;;;17.80;63.70;;;;;;4402225;32;20333;-81
2022/12/05 01:40:22;;;;;;;;;;;17.80;63.70;;;;;;4417502;32;20014;-81
2022/12/05 01:42:48;;;;;;;;;;;17.80;63.70;;;;;;4417618;32;20021;-81
2022/12/05 01:45:15;;;;;;;;;;;17.80;63.80;;;;;;4403617;32;19959;-81
2022/12/05 01:47:41;;;;;;;;;;;17.80;63.70;;;;;;4417362;32;19987;-81
2022/12/05 01:50:08;;;;;;;;;;;17.80;63.70;;;;;;4417607;32;20329;-81
2022/12/05 01:52:34;;;;;;;;;;;17.80;63.80;;;;;;4417221;32;19971;-81
2022/12/05 01:55:02;;;;;;;;;;;17.80;63.70;;;;;;4417488;32;20317;-81
2022/12/05 01:57:29;;;;;;;;;;;17.80;63.70;;;;;;4417224;32;20028;-81
2022/12/05 02:00:03;;;;;;;;;;;17.80;64.60;;;;;;4417345;32;20109;-81
2022/12/05 02:02:29;;;;;;;;;;;17.70;63.70;;;;;;4415808;32;20031;-81
2022/12/05 02:05:00;;;;;;;;;;;17.70;63.70;;;;;;4417482;32;20038;-81
2022/12/05 02:07:25;;;;;;;;;;;17.70;63.70;;;;;;4416958;32;19983;-81
2022/12/05 02:09:51;;;;;;;;;;;17.70;63.70;;;;;;4417270;32;19971;-81
2022/12/05 02:12:18;;;;;;;;;;;17.70;63.70;;;;;;4417290;32;19983;-81
2022/12/05 02:14:50;;;;;;;;;;;17.70;63.70;;;;;;4416986;32;19983;-81
2022/12/05 02:17:15;;;;;;;;;;;17.70;63.60;;;;;;4417155;32;19972;-81
2022/12/05 02:19:53;;;;;;;;;;;17.70;63.70;;;;;;4416838;32;20053;-81
2022/12/05 02:22:26;;;;;;;;;;;17.70;63.70;;;;;;4416965;32;19975;-81
2022/12/05 02:25:03;;;;;;;;;;;17.70;63.70;;;;;;4417271;32;20053;-81
2022/12/05 02:27:29;;;;;;;;;;;17.70;63.70;;;;;;4417950;32;19975;-81
2022/12/05 02:30:13;;;;;;;;;;;17.70;63.60;;;;;;4418092;32;20021;-81
2022/12/05 02:32:38;;;;;;;;;;;17.70;63.70;;;;;;4417901;32;20404;-81
2022/12/05 02:35:23;;;;;;;;;;;17.60;63.70;;;;;;4418013;32;19978;-80
2022/12/05 02:37:58;;;;;;;;;;;17.70;63.70;;;;;;4418274;32;20019;-81
2022/12/05 02:40:28;;;;;;;;;;;17.60;63.60;;;;;;4417283;32;20062;-81
2022/12/05 02:42:57;;;;;;;;;;;17.60;63.70;;;;;;4417704;32;20333;-81
2022/12/05 02:45:24;;;;;;;;;;;17.60;63.70;;;;;;4417454;32;20105;-81
2022/12/05 02:47:51;;;;;;;;;;;17.60;63.70;;;;;;4417620;32;20377;-81
2022/12/05 02:50:19;;;;;;;;;;;17.60;63.60;;;;;;4417294;32;19987;-81
2022/12/05 02:52:46;;;;;;;;;;;17.60;63.70;;;;;;4417404;32;20294;-81
2022/12/05 02:55:13;;;;;;;;;;;17.60;63.60;;;;;;4417014;32;19979;-81
2022/12/05 02:57:41;;;;;;;;;;;17.60;63.70;;;;;;4417723;32;20460;-81
2022/12/05 03:00:07;;;;;;;;;;;17.60;63.70;;;;;;4417950;32;20516;-81
2022/12/05 03:02:33;;;;;;;;;;;17.60;63.70;;;;;;4417731;32;20117;-81
2022/12/05 03:05:18;;;;;;;;;;;17.50;63.60;;;;;;4418001;32;19996;-81
2022/12/05 03:07:45;;;;;;;;;;;17.50;63.60;;;;;;4407131;32;20089;-81
2022/12/05 03:10:11;;;;;;;;;;;17.50;63.60;;;;;;4417334;32;20037;-81
2022/12/05 03:12:41;;;;;;;;;;;17.50;63.70;;;;;;4417346;32;20121;-81
2022/12/05 03:15:09;;;;;;;;;;;17.50;63.60;;;;;;4417653;32;20412;-81
2022/12/05 03:17:38;;;;;;;;;;;17.50;63.60;;;;;;4403607;32;20007;-80
2022/12/05 03:20:05;;;;;;;;;;;17.50;63.60;;;;;;4417497;32;19986;-80
2022/12/05 03:22:34;;;;;;;;;;;17.50;63.60;;;;;;4416630;32;20384;-81
2022/12/05 03:25:00;;;;;;;;;;;17.50;63.70;;;;;;4416145;32;19979;-81
2022/12/05 03:27:39;;;;;;;;;;;17.50;63.70;;;;;;4416336;32;20468;-81
2022/12/05 03:30:07;;;;;;;;;;;17.50;63.70;;;;;;4416062;32;19971;-80
2022/12/05 03:32:40;;;;;;;;;;;17.50;63.70;;;;;;4415991;32;20114;-81
2022/12/05 03:35:29;;;;;;;;;;;17.40;63.70;;;;;;4415883;32;19983;-80
2022/12/05 03:37:59;;;;;;;;;;;17.40;63.70;;;;;;4379049;32;19986;-81
2022/12/05 03:40:28;;;;;;;;;;;17.40;63.70;;;;;;4405524;32;20026;-81
2022/12/05 03:42:58;;;;;;;;;;;17.40;63.70;;;;;;4416022;32;20333;-81
2022/12/05 03:45:30;;;;;;;;;;;17.40;63.70;;;;;;4415970;32;20168;-81
2022/12/05 03:48:03;;;;;;;;;;;17.40;63.70;;;;;;4415805;32;20022;-81
2022/12/05 03:50:30;;;;;;;;;;;17.40;63.70;;;;;;4415802;32;19975;-81
2022/12/05 03:52:58;;;;;;;;;;;17.40;63.70;;;;;;4416000;32;19997;-81
2022/12/05 03:55:25;;;;;;;;;;;17.40;63.70;;;;;;4415679;32;20423;-81
2022/12/05 03:58:00;;;;;;;;;;;17.40;63.70;;;;;;4416007;32;19991;-81
2022/12/05 04:00:26;;;;;;;;;;;17.40;63.70;;;;;;4415187;32;19987;-81
2022/12/05 04:02:53;;;;;;;;;;;17.40;63.70;;;;;;4415401;32;19979;-81
2022/12/05 04:05:31;;;;;;;;;;;17.30;63.60;;;;;;4415477;32;20170;-81
2022/12/05 04:08:02;;;;;;;;;;;17.40;63.70;;;;;;4415287;32;19989;-81
2022/12/05 04:10:30;;;;;;;;;;;17.40;63.80;;;;;;4415700;32;19975;-81
2022/12/05 04:13:16;;;;;;;;;;;17.30;63.70;;;;;;4415573;32;20041;-81
2022/12/05 04:18:30;;;;;;;;;;;17.30;63.70;;;;;;4415449;32;19986;-81
2022/12/05 04:23:41;;;;;;;;;;;17.30;63.80;;;;;;4406754;32;20006;-81
2022/12/05 04:26:19;;;;;;;;;;;17.30;63.70;;;;;;4415188;32;20464;-80
2022/12/05 04:28:50;;;;;;;;;;;17.30;63.80;;;;;;4415607;32;20105;-81
2022/12/05 04:31:15;;;;;;;;;;;17.30;63.70;;;;;;4415242;32;19979;-79
2022/12/05 04:33:49;;;;;;;;;;;17.30;63.80;;;;;;4415067;32;20462;-81
2022/12/05 04:36:18;;;;;;;;;;;17.30;63.80;;;;;;4415202;32;20113;-81
2022/12/05 04:39:01;;;;;;;;;;;17.20;63.70;;;;;;4404728;32;19987;-81
2022/12/05 04:41:39;;;;;;;;;;;17.20;63.70;;;;;;4415082;32;19975;-81
2022/12/05 04:44:06;;;;;;;;;;;17.20;63.70;;;;;;4401287;32;19990;-81
2022/12/05 04:46:32;;;;;;;;;;;17.20;63.80;;;;;;4415017;32;19994;-82
2022/12/05 04:49:00;;;;;;;;;;;17.20;63.80;;;;;;4415085;32;20019;-81
2022/12/05 04:51:28;;;;;;;;;;;17.20;63.70;;;;;;4414719;32;20023;-82
2022/12/05 04:54:00;;;;;;;;;;;17.20;63.80;;;;;;4414845;32;19975;-81
2022/12/05 04:56:29;;;;;;;;;;;17.20;63.80;;;;;;4414997;32;19971;-81
2022/12/05 04:58:54;;;;;;;;;;;17.20;63.70;;;;;;4414805;32;19995;-81
2022/12/05 05:01:34;;;;;;;;;;;17.20;63.80;;;;;;4414430;32;20294;-81
2022/12/05 05:04:11;;;;;;;;;;;17.20;63.80;;;;;;4414667;32;20073;-81
2022/12/05 05:06:38;;;;;;;;;;;17.20;63.80;;;;;;4414982;32;19975;-81
2022/12/05 05:09:04;;;;;;;;;;;17.20;63.80;;;;;;4414575;32;20038;-81
2022/12/05 05:11:33;;;;;;;;;;;17.10;63.80;;;;;;4414421;32;20097;-81
2022/12/05 05:13:59;;;;;;;;;;;17.20;63.80;;;;;;4414399;32;20101;-81
2022/12/05 05:16:26;;;;;;;;;;;17.20;63.80;;;;;;4414950;32;20536;-81
2022/12/05 05:18:52;;;;;;;;;;;17.10;63.80;;;;;;4414724;32;19971;-81
2022/12/05 05:21:26;;;;;;;;;;;17.10;63.70;;;;;;4414556;32;19978;-81
2022/12/05 05:23:52;;;;;;;;;;;17.10;63.80;;;;;;4400965;32;19989;-81
2022/12/05 05:26:18;;;;;;;;;;;17.10;63.90;;;;;;4414584;32;19975;-81
2022/12/05 05:28:44;;;;;;;;;;;17.10;63.80;;;;;;4414571;32;19982;-81
2022/12/05 05:31:10;;;;;;;;;;;17.10;63.80;;;;;;4414735;32;20381;-81
2022/12/05 05:33:36;;;;;;;;;;;17.20;63.80;;;;;;4414195;32;19979;-81
2022/12/05 05:36:05;;;;;;;;;;;17.20;63.70;;;;;;4400717;32;20002;-81
2022/12/05 05:38:34;;;;;;;;;;;17.20;63.70;;;;;;4414429;32;20057;-81
2022/12/05 05:40:59;;;;;;;;;;;17.20;63.60;;;;;;4414667;32;20413;-82
2022/12/05 05:43:25;;;;;;;;;;;17.20;63.50;;;;;;4414468;32;20117;-81
2022/12/05 05:45:51;;;;;;;;;;;17.20;63.50;;;;;;4414463;32;20033;-81
2022/12/05 05:48:16;;;;;;;;;;;17.20;63.50;;;;;;4400780;32;20105;-81
2022/12/05 05:50:42;;;;;;;;;;;17.30;63.50;;;;;;4400817;32;20082;-81
2022/12/05 05:53:09;;;;;;;;;;;17.30;63.40;;;;;;4414526;32;20113;-81
2022/12/05 05:55:37;;;;;;;;;;;17.30;63.40;;;;;;4400620;32;20097;-81
2022/12/05 05:58:03;;;;;;;;;;;17.30;63.40;;;;;;4414520;32;20335;-81
2022/12/05 06:00:29;;;;;;;;;;;17.30;63.30;;;;;;4414228;32;20077;-81
2022/12/05 06:02:54;;;;;;;;;;;17.40;63.20;;;;;;4414132;32;19983;-81
2022/12/05 06:05:20;;;;;;;;;;;17.40;63.20;;;;;;4414406;32;19982;-81
2022/12/05 06:07:46;;;;;;;;;;;17.40;63.20;;;;;;4414202;32;20385;-81
2022/12/05 06:10:11;;;;;;;;;;;17.40;63.10;;;;;;4414182;32;20050;-81
2022/12/05 06:12:37;;;;;;;;;;;17.40;63.10;;;;;;4414148;32;19971;-81
2022/12/05 06:15:03;;;;;;;;;;;17.40;63.00;;;;;;4414442;32;20067;-81
2022/12/05 06:17:29;;;;;;;;;;;17.40;63.00;;;;;;4414188;32;19999;-81
2022/12/05 06:19:55;;;;;;;;;;;17.40;62.90;;;;;;4414182;32;20320;-81
2022/12/05 06:22:20;;;;;;;;;;;17.50;62.90;;;;;;4414276;32;20385;-81
2022/12/05 06:24:46;;;;;;;;;;;17.50;62.90;;;;;;4416322;32;20397;-81
2022/12/05 06:27:11;;;;;;;;;;;17.50;62.80;;;;;;4403374;32;19978;-81
2022/12/05 06:29:37;;;;;;;;;;;17.50;62.80;;;;;;4417081;32;19979;-81
2022/12/05 06:32:03;;;;;;;;;;;17.50;62.80;;;;;;4403269;32;19963;-81
2022/12/05 06:34:31;;;;;;;;;;;17.50;62.70;;;;;;4403374;32;19971;-81
2022/12/05 06:36:58;;;;;;;;;;;17.50;62.70;;;;;;4403178;32;19975;-81
2022/12/05 06:39:24;;;;;;;;;;;17.50;62.60;;;;;;4416995;32;20097;-81
2022/12/05 06:41:50;;;;;;;;;;;17.50;62.60;;;;;;4416774;32;20333;-81
2022/12/05 06:44:16;;;;;;;;;;;17.50;62.60;;;;;;4416870;32;19967;-81
2022/12/05 06:46:41;;;;;;;;;;;17.50;62.60;;;;;;4416711;32;20139;-81
2022/12/05 06:49:11;;;;;;;;;;;17.50;62.60;;;;;;4416832;32;19963;-81
2022/12/05 06:51:37;;;;;;;;;;;17.50;62.60;;;;;;4416703;32;19975;-81
2022/12/05 06:54:04;;;;;;;;;;;17.50;62.50;;;;;;4416841;32;19981;-81
2022/12/05 06:56:29;;;;;;;;;;;17.50;62.60;;;;;;4416779;32;19979;-81
2022/12/05 06:58:55;;;;;;;;;;;17.50;62.60;;;;;;4416647;32;19975;-81
2022/12/05 07:01:37;;;;;;;;;;;17.50;62.60;;;;;;4416825;32;20325;-81
2022/12/05 07:04:04;;;;;;;;;;;17.50;62.50;;;;;;4416599;32;20026;-80
2022/12/05 07:06:30;;;;;;;;;;;17.50;62.60;;;;;;4416420;32;19998;-81
2022/12/05 07:08:56;;;;;;;;;;;17.50;62.60;;;;;;4402360;32;19979;-81
2022/12/05 07:11:21;;;;;;;;;;;17.60;62.60;;;;;;4416693;32;20447;-81
2022/12/05 07:13:47;;;;;;;;;;;17.50;62.50;;;;;;4416397;32;19967;-81
2022/12/05 07:16:13;;;;;;;;;;;17.50;62.50;;;;;;4416405;32;19978;-81
2022/12/05 07:18:39;;;;;;;;;;;17.50;62.60;;;;;;4416223;32;20478;-81
2022/12/05 07:21:10;;;;;;;;;;;17.50;62.60;;;;;;4416313;32;20054;-81
2022/12/05 07:23:36;;;;;;;;;;;17.50;62.60;;;;;;4416670;32;19979;-81
2022/12/05 07:26:05;;;;;;;;;;;17.50;62.60;;;;;;4416341;32;19963;-81
2022/12/05 07:28:31;;;;;;;;;;;17.50;62.90;;;;;;4416426;32;19967;-81
2022/12/05 07:31:01;;;;;;;;;;;17.50;62.60;;;;;;4416340;32;20053;-81
2022/12/05 07:33:27;;;;;;;;;;;17.50;62.60;;;;;;4415816;32;20062;-81
2022/12/05 07:35:57;;;;;;;;;;;17.50;62.60;;;;;;4415446;32;19985;-81
2022/12/05 07:38:23;;;;;;;;;;;17.40;62.50;;;;;;4416114;32;20074;-81
2022/12/05 07:40:48;;;;;;;;;;;17.40;62.50;;;;;;4416179;32;20421;-81
2022/12/05 07:43:14;;;;;;;;;;;17.40;62.50;;;;;;4415781;32;19979;-81
2022/12/05 07:45:40;;;;;;;;;;;17.40;62.50;;;;;;4416066;32;19964;-81
2022/12/05 07:48:05;;;;;;;;;;;17.40;62.60;;;;;;4416005;32;19967;-81
2022/12/05 07:50:31;;;;;;;;;;;17.40;62.60;;;;;;4415686;32;20058;-81
2022/12/05 07:52:57;;;;;;;;;;;17.40;62.60;;;;;;4415840;32;20041;-81
2022/12/05 07:55:23;;;;;;;;;;;17.40;62.60;;;;;;4415703;32;20389;-80
2022/12/05 07:57:49;;;;;;;;;;;17.40;62.50;;;;;;4402320;32;19999;-80
2022/12/05 08:00:15;;;;;;;;;;;17.40;62.60;;;;;;4415755;32;20385;-82
2022/12/05 08:02:40;;;;;;;;;;;17.40;62.60;;;;;;4415564;32;19964;-79
2022/12/05 08:05:07;;;;;;;;;;;17.40;62.60;;;;;;4415615;32;19963;-81
2022/12/05 08:07:32;;;;;;;;;;;17.40;62.60;;;;;;4415733;32;20121;-80
2022/12/05 08:09:58;;;;;;;;;;;17.40;62.60;;;;;;4415445;32;19968;-81
2022/12/05 08:12:24;;;;;;;;;;;17.40;62.70;;;;;;4415445;32;20018;-79
2022/12/05 08:14:49;;;;;;;;;;;17.40;62.60;;;;;;4415791;32;20145;-81
2022/12/05 08:17:15;;;;;;;;;;;17.40;62.60;;;;;;4415368;32;20037;-79
2022/12/05 08:19:41;;;;;;;;;;;17.40;62.60;;;;;;4415359;32;20113;-80
2022/12/05 08:22:26;;;;;;;;;;;17.40;62.50;;;;;;4403957;32;20003;-81
2022/12/05 08:24:52;;;;;;;;;;;17.40;62.60;;;;;;4415180;32;20015;-80
2022/12/05 08:27:18;;;;;;;;;;;17.40;62.50;;;;;;4415383;32;20345;-80
2022/12/05 08:29:43;;;;;;;;;;;17.40;62.50;;;;;;4409944;32;19988;-83
2022/12/05 08:32:09;;;;;;;;;;;17.40;62.50;;;;;;4414852;32;20030;-88
2022/12/05 08:34:34;;;;;;;;;;;17.30;63.30;;;;;;4415176;32;20506;-88
2022/12/05 08:37:00;;;;;;;;;;;17.30;63.50;;;;;;4414979;32;19972;-88
2022/12/05 08:39:26;;;;;;;;;;;17.30;64.10;;;;;;4415156;32;19991;-87
2022/12/05 08:41:51;;;;;;;;;;;17.40;64.30;;;;;;4414846;32;20049;-85
2022/12/05 08:44:18;;;;;;;;;;;17.40;63.30;;;;;;4414954;32;19979;-86
2022/12/05 08:46:44;;;;;;;;;;;17.40;63.10;;;;;;4414697;32;20057;-88
2022/12/05 08:49:10;;;;;;;;;;;17.50;63.00;;;;;;4415072;32;19985;-87
2022/12/05 08:51:36;;;;;;;;;;;17.60;62.80;;;;;;4414843;32;19971;-83
2022/12/05 08:54:02;;;;;;;;;;;17.80;62.60;;;;;;4415087;32;20053;-87
2022/12/05 08:56:29;;;;;;;;;;;17.90;62.30;;;;;;4414948;32;19979;-89
2022/12/05 08:58:55;;;;;;;;;;;18.10;62.20;;;;;;4414690;32;19983;-86
2022/12/05 09:01:21;;;;;;;;;;;18.20;61.80;;;;;;4414876;32;19960;-88
2022/12/05 09:03:47;;;;;;;;;;;18.30;61.40;;;;;;4414369;32;19982;-89
2022/12/05 09:06:15;;;;;;;;;;;18.40;61.10;;;;;;4415022;32;20290;-88
2022/12/05 09:08:41;;;;;;;;;;;18.60;60.80;;;;;;4414449;32;20049;-88
2022/12/05 09:11:17;;;;;;;;;;;18.80;60.50;;;;;;4414898;32;19991;-88
2022/12/05 09:13:43;;;;;;;;;;;18.90;60.20;;;;;;4414730;32;20061;-85
2022/12/05 09:16:11;;;;;;;;;;;19.00;60.00;;;;;;4414587;32;20038;-88
2022/12/05 09:18:37;;;;;;;;;;;19.10;59.80;;;;;;4414793;32;19983;-87
2022/12/05 09:21:06;;;;;;;;;;;19.20;59.60;;;;;;4414492;32;19983;-88
2022/12/05 09:23:32;;;;;;;;;;;19.20;59.40;;;;;;4414778;32;19990;-88
2022/12/05 09:26:01;;;;;;;;;;;19.30;59.40;;;;;;4414692;32;20321;-88
2022/12/05 09:28:27;;;;;;;;;;;19.40;59.40;;;;;;4400822;32;19979;-87
2022/12/05 09:31:00;;;;;;;;;;;19.40;59.40;;;;;;4414721;32;19979;-88
2022/12/05 09:33:27;;;;;;;;;;;19.40;59.30;;;;;;4414281;32;20036;-88
2022/12/05 09:35:52;;;;;;;;;;;19.50;59.40;;;;;;4414605;32;19974;-88
2022/12/05 09:38:18;;;;;;;;;;;19.50;59.30;;;;;;4414410;32;19968;-87
2022/12/05 09:40:44;;;;;;;;;;;19.50;59.20;;;;;;4414591;32;19975;-86
2022/12/05 09:43:21;;;;;;;;;;;19.50;59.20;;;;;;4414116;32;20437;-80
2022/12/05 09:46:09;;;;;;;;;;;19.50;59.20;;;;;;4414990;32;20062;-88
2022/12/05 09:48:38;;;;;;;;;;;19.50;59.20;;;;;;4408132;32;19983;-89
2022/12/05 09:51:04;;;;;;;;;;;19.50;59.20;;;;;;4414399;32;19982;-88
2022/12/05 09:53:34;;;;;;;;;;;19.60;59.20;;;;;;4414194;32;20330;-87
2022/12/05 09:56:05;;;;;;;;;;;19.60;59.20;;;;;;4407414;32;20502;-84
2022/12/05 09:58:32;;;;;;;;;;;19.60;59.30;;;;;;4404124;32;19971;-81
2022/12/05 10:01:00;;;;;;;;;;;19.60;59.30;;;;;;4407896;32;20123;-83
2022/12/05 10:03:31;;;;;;;;;;;19.60;59.30;;;;;;4402643;32;19994;-84
2022/12/05 10:06:16;;;;;;;;;;;19.60;59.30;;;;;;4402516;32;20037;-84
2022/12/05 10:08:45;;;;;;;;;;;19.60;59.30;;;;;;4402448;32;20148;-86
2022/12/05 10:11:14;;;;;;;;;;;19.60;59.40;;;;;;4406143;32;19987;-89
2022/12/05 10:13:45;;;;;;;;;;;19.60;59.40;;;;;;4417233;32;20376;-83
2022/12/05 10:16:18;;;;;;;;;;;19.60;59.40;;;;;;4417241;32;20001;-87
2022/12/05 10:18:51;;;;;;;;;;;19.60;59.50;;;;;;4417030;32;20393;-89
2022/12/05 10:21:20;;;;;;;;;;;19.60;59.50;;;;;;4417052;32;19983;-87
2022/12/05 10:23:51;;;;;;;;;;;19.60;59.50;;;;;;4417068;32;20101;-87
2022/12/05 10:26:18;;;;;;;;;;;19.60;59.60;;;;;;4416904;32;19983;-86
2022/12/05 10:28:44;;;;;;;;;;;19.60;59.60;;;;;;4417169;32;20518;-89
2022/12/05 10:31:11;;;;;;;;;;;19.60;59.70;;;;;;4417040;32;20015;-88
2022/12/05 10:33:39;;;;;;;;;;;19.60;59.60;;;;;;4416803;32;20030;-89
2022/12/05 10:36:11;;;;;;;;;;;19.60;59.70;;;;;;4417046;32;20062;-89
2022/12/05 10:38:37;;;;;;;;;;;19.60;59.70;;;;;;4416353;32;20047;-87
2022/12/05 10:41:07;;;;;;;;;;;19.60;59.60;;;;;;4415240;32;19975;-87
2022/12/05 10:43:34;;;;;;;;;;;19.60;59.70;;;;;;4409809;32;19994;-83
2022/12/05 10:46:00;;;;;;;;;;;19.60;59.80;;;;;;4410179;32;20039;-84
2022/12/05 10:48:26;;;;;;;;;;;19.60;59.90;;;;;;4409532;32;20184;-82
2022/12/05 10:50:53;;;;;;;;;;;19.60;59.90;;;;;;4408137;32;19978;-89
2022/12/05 10:53:38;;;;;;;;;;;19.50;60.90;;;;;;4408079;32;20109;-89
2022/12/05 10:56:23;;;;;;;;;;;19.50;60.10;;;;;;4410432;32;19999;-88
2022/12/05 10:58:56;;;;;;;;;;;19.40;60.30;;;;;;4408861;32;20027;-87
2022/12/05 11:01:22;;;;;;;;;;;19.30;60.60;;;;;;4408646;32;19983;-85
2022/12/05 11:03:54;;;;;;;;;;;19.30;60.70;;;;;;4423907;32;19978;-86
2022/12/05 11:06:27;;;;;;;;;;;19.20;61.00;;;;;;4414060;32;20031;-84
2022/12/05 11:08:57;;;;;;;;;;;19.10;61.20;;;;;;4415635;32;19987;-84
2022/12/05 11:11:26;;;;;;;;;;;19.00;61.50;;;;;;4416006;32;19995;-83
2022/12/05 11:14:05;;;;;;;;;;;19.00;61.70;;;;;;4401166;32;20105;-83
2022/12/05 11:16:36;;;;;;;;;;;18.90;61.90;;;;;;4401002;32;19995;-83
2022/12/05 11:19:37;;;;;;;;;;;18.80;62.00;;;;;;4403859;32;19972;-85
2022/12/05 11:22:03;;;;;;;;;;;18.80;62.20;;;;;;4372861;32;19980;-86
2022/12/05 11:24:31;;;;;;;;;;;18.80;62.50;;;;;;4399071;32;20059;-85
2022/12/05 11:26:58;;;;;;;;;;;18.80;62.50;;;;;;4401209;32;20039;-85
2022/12/05 11:29:27;;;;;;;;;;;18.80;62.60;;;;;;4400978;32;19987;-87
2022/12/05 11:31:53;;;;;;;;;;;18.80;62.60;;;;;;4402027;32;19983;-86
2022/12/05 11:34:21;;;;;;;;;;;18.90;62.80;;;;;;4402677;32;20109;-86
2022/12/05 11:36:54;;;;;;;;;;;18.90;62.70;;;;;;4403067;32;19975;-86
2022/12/05 11:39:20;;;;;;;;;;;19.10;62.70;;;;;;4401621;32;20046;-88
2022/12/05 11:41:49;;;;;;;;;;;19.20;62.70;;;;;;4403946;32;20030;-87
2022/12/05 11:44:26;;;;;;;;;;;19.30;62.50;;;;;;4412080;32;20475;-85
2022/12/05 11:47:17;;;;;;;;;;;19.40;62.50;;;;;;4413605;32;19986;-86
2022/12/05 11:49:48;;;;;;;;;;;19.50;62.40;;;;;;4415885;32;20030;-85
2022/12/05 11:52:27;;;;;;;;;;;19.50;62.10;;;;;;4411021;32;19989;-85
2022/12/05 11:55:04;;;;;;;;;;;19.60;62.00;;;;;;4424116;32;20384;-85
2022/12/05 11:57:32;;;;;;;;;;;19.70;61.90;;;;;;4415441;32;20030;-84
2022/12/05 12:00:25;;;;;;;;;;;19.70;62.70;;;;;;4415246;32;19979;-84
2022/12/05 12:02:54;;;;;;;;;;;19.70;61.80;;;;;;4412898;32;20134;-83
2022/12/05 12:05:20;;;;;;;;;;;19.80;61.80;;;;;;4414709;32;19979;-83
2022/12/05 12:08:04;;;;;;;;;;;19.80;61.70;;;;;;4415074;32;19994;-84
2022/12/05 12:10:39;;;;;;;;;;;19.80;61.70;;;;;;4414907;32;20504;-83
2022/12/05 12:13:04;;;;;;;;;;;19.90;61.80;;;;;;4414893;32;19983;-84
2022/12/05 12:15:41;;;;;;;;;;;19.90;61.70;;;;;;4414719;32;20306;-85
2022/12/05 12:18:13;;;;;;;;;;;19.90;61.70;;;;;;4404877;32;19979;-84
2022/12/05 12:20:42;;;;;;;;;;;19.90;61.60;;;;;;4400926;32;19986;-84
2022/12/05 12:23:13;;;;;;;;;;;19.90;61.60;;;;;;4403170;32;19967;-82
2022/12/05 12:25:58;;;;;;;;;;;20.00;61.60;;;;;;4400070;32;19967;-83
2022/12/05 12:28:24;;;;;;;;;;;20.00;61.60;;;;;;4395601;32;20073;-82
2022/12/05 12:30:52;;;;;;;;;;;20.00;61.50;;;;;;4402447;32;20434;-83
2022/12/05 12:33:36;;;;;;;;;;;20.00;61.50;;;;;;4403504;32;19991;-83
2022/12/05 12:36:05;;;;;;;;;;;20.00;61.40;;;;;;4401427;32;20325;-83
2022/12/05 12:38:34;;;;;;;;;;;20.00;61.50;;;;;;4412776;32;19990;-85
2022/12/05 12:41:08;;;;;;;;;;;20.00;61.50;;;;;;4414983;32;19971;-88
2022/12/05 12:43:49;;;;;;;;;;;20.00;61.50;;;;;;4403519;32;20058;-83
2022/12/05 12:46:15;;;;;;;;;;;20.00;61.50;;;;;;4413798;32;19979;-86
2022/12/05 12:48:47;;;;;;;;;;;20.00;61.50;;;;;;4414847;32;20053;-86
2022/12/05 12:51:12;;;;;;;;;;;20.00;61.50;;;;;;4414836;32;19979;-85
2022/12/05 12:53:57;;;;;;;;;;;20.00;61.50;;;;;;4414808;32;20543;-85
2022/12/05 12:56:23;;;;;;;;;;;20.00;61.60;;;;;;4414779;32;19979;-84
2022/12/05 12:58:55;;;;;;;;;;;20.00;61.50;;;;;;4414642;32;20321;-81
2022/12/05 13:01:21;;;;;;;;;;;20.00;61.50;;;;;;4414633;32;20180;-83
2022/12/05 13:04:01;;;;;;;;;;;20.00;61.50;;;;;;4414313;32;19975;-83
2022/12/05 13:06:27;;;;;;;;;;;20.00;61.50;;;;;;4414578;32;19990;-77
2022/12/05 13:08:55;;;;;;;;;;;20.00;61.60;;;;;;4413873;32;20566;-84
2022/12/05 13:11:21;;;;;;;;;;;20.00;61.50;;;;;;4414955;32;20081;-86
2022/12/05 13:13:52;;;;;;;;;;;20.00;61.60;;;;;;4413448;32;20057;-85
2022/12/05 13:16:33;;;;;;;;;;;20.00;61.60;;;;;;4414620;32;19981;-84
2022/12/05 13:18:59;;;;;;;;;;;20.00;61.60;;;;;;4413994;32;19987;-86
2022/12/05 13:21:26;;;;;;;;;;;20.00;61.60;;;;;;4400450;32;20496;-86
2022/12/05 13:23:54;;;;;;;;;;;20.00;61.60;;;;;;4399817;32;19993;-85
2022/12/05 13:26:22;;;;;;;;;;;20.00;61.60;;;;;;4400104;32;20024;-87
2022/12/05 13:28:55;;;;;;;;;;;20.00;61.60;;;;;;4410388;32;20109;-85
2022/12/05 13:31:37;;;;;;;;;;;20.00;61.60;;;;;;4400005;32;19987;-86
2022/12/05 13:34:03;;;;;;;;;;;20.00;61.40;;;;;;4400409;32;20034;-84
2022/12/05 13:42:19;;;;;;;;;;;20.00;61.60;;;;;;4398251;32;20043;-85
2022/12/05 13:44:54;;;;;;;;;;;20.00;61.60;;;;;;4398969;32;20075;-86
2022/12/05 13:47:23;;;;;;;;;;;20.00;61.60;;;;;;4399484;32;20023;-86
2022/12/05 13:49:55;;;;;;;;;;;20.00;61.60;;;;;;4389763;32;19983;-85
2022/12/05 13:52:23;;;;;;;;;;;20.00;61.50;;;;;;4402255;32;20063;-85
2022/12/05 13:55:05;;;;;;;;;;;20.10;61.60;;;;;;4401867;32;20410;-84
2022/12/05 13:57:36;;;;;;;;;;;20.10;61.60;;;;;;4403615;32;20096;-84
2022/12/05 14:00:06;;;;;;;;;;;20.10;61.50;;;;;;4403814;32;20035;-87
2022/12/05 14:02:45;;;;;;;;;;;20.10;61.50;;;;;;4408334;32;20011;-88
2022/12/05 14:05:16;;;;;;;;;;;20.10;61.50;;;;;;4414135;32;19991;-87
2022/12/05 14:07:47;;;;;;;;;;;20.10;61.40;;;;;;4412147;32;19979;-86
2022/12/05 14:10:15;;;;;;;;;;;20.10;61.40;;;;;;4407583;32;19979;-86
2022/12/05 14:12:46;;;;;;;;;;;20.10;61.40;;;;;;4402186;32;20021;-85
2022/12/05 14:15:31;;;;;;;;;;;20.10;61.40;;;;;;4402538;32;19979;-85
2022/12/05 14:18:17;;;;;;;;;;;20.10;61.40;;;;;;4403382;32;20507;-85
2022/12/05 14:20:45;;;;;;;;;;;20.10;61.40;;;;;;4402127;32;19986;-86
2022/12/05 14:23:11;;;;;;;;;;;20.10;61.40;;;;;;4404302;32;19991;-86
2022/12/05 14:26:04;;;;;;;;;;;20.10;61.40;;;;;;4400614;32;19982;-83
2022/12/05 14:28:30;;;;;;;;;;;20.10;61.40;;;;;;4406147;32;19975;-79
2022/12/05 14:31:14;;;;;;;;;;;20.10;61.40;;;;;;4411688;32;20134;-83
2022/12/05 14:33:40;;;;;;;;;;;20.10;61.50;;;;;;4404865;32;19979;-83
2022/12/05 14:36:07;;;;;;;;;;;20.10;61.50;;;;;;4399625;32;19960;-84
2022/12/05 14:38:35;;;;;;;;;;;20.10;61.60;;;;;;4399951;32;20194;-83